sensor_id;sensor_type;location;lat;lon;timestamp;pressure;altitude;pressure_sealevel;temperature;humidity
6694;BME280;3384;42.628;23.380;2024-03-25T00:02:55;92932.41;;;5.48;100.00
6694;BME280;3384;42.628;23.380;2024-03-25T00:05:22;92951.16;;;5.73;100.00
6694;BME280;3384;42.628;23.380;2024-03-25T00:07:52;92930.13;;;5.55;100.00
6694;BME280;3384;42.628;23.380;2024-03-25T00:10:19;92949.91;;;5.49;100.00
6694;BME280;3384;42.628;23.380;2024-03-25T00:12:46;92942.25;;;5.69;100.00
6694;BME280;3384;42.628;23.380;2024-03-25T00:15:18;92924.28;;;5.31;100.00
6694;BME280;3384;42.628;23.380;2024-03-25T00:17:45;92928.53;;;5.54;100.00
6694;BME280;3384;42.628;23.380;2024-03-25T00:20:12;92938.97;;;5.50;100.00
6694;BME280;3384;42.628;23.380;2024-03-25T00:22:38;92919.50;;;5.55;100.00
6694;BME280;3384;42.628;23.380;2024-03-25T00:25:07;92934.50;;;5.37;100.00
6694;BME280;3384;42.628;23.380;2024-03-25T00:27:34;92935.59;;;5.58;100.00
6694;BME280;3384;42.628;23.380;2024-03-25T00:30:01;92933.16;;;5.84;100.00
6694;BME280;3384;42.628;23.380;2024-03-25T00:32:27;92923.31;;;5.85;100.00
6694;BME280;3384;42.628;23.380;2024-03-25T00:34:54;92925.63;;;5.64;100.00
6694;BME280;3384;42.628;23.380;2024-03-25T00:37:20;92912.09;;;5.88;100.00
6694;BME280;3384;42.628;23.380;2024-03-25T00:39:47;92902.34;;;5.83;100.00
6694;BME280;3384;42.628;23.380;2024-03-25T00:42:14;92912.53;;;5.90;100.00
6694;BME280;3384;42.628;23.380;2024-03-25T00:44:41;92901.78;;;6.25;100.00
6694;BME280;3384;42.628;23.380;2024-03-25T00:47:07;92911.72;;;6.11;100.00
6694;BME280;3384;42.628;23.380;2024-03-25T00:49:34;92917.06;;;6.11;100.00
6694;BME280;3384;42.628;23.380;2024-03-25T00:52:00;92907.72;;;6.22;100.00
6694;BME280;3384;42.628;23.380;2024-03-25T00:54:27;92912.19;;;6.13;100.00
6694;BME280;3384;42.628;23.380;2024-03-25T00:56:53;92916.31;;;6.19;100.00
6694;BME280;3384;42.628;23.380;2024-03-25T00:59:22;92915.13;;;6.03;100.00
6694;BME280;3384;42.628;23.380;2024-03-25T01:01:48;92913.47;;;6.16;100.00
6694;BME280;3384;42.628;23.380;2024-03-25T01:04:15;92908.81;;;6.21;100.00
6694;BME280;3384;42.628;23.380;2024-03-25T01:06:41;92905.47;;;6.07;100.00
6694;BME280;3384;42.628;23.380;2024-03-25T01:09:08;92925.16;;;6.06;100.00
6694;BME280;3384;42.628;23.380;2024-03-25T01:11:35;92901.22;;;6.06;100.00
6694;BME280;3384;42.628;23.380;2024-03-25T01:14:04;92883.38;;;6.07;100.00
6694;BME280;3384;42.628;23.380;2024-03-25T01:16:31;92882.19;;;5.91;100.00
6694;BME280;3384;42.628;23.380;2024-03-25T01:18:59;92870.16;;;5.85;100.00
6694;BME280;3384;42.628;23.380;2024-03-25T01:21:25;92894.06;;;6.15;100.00
6694;BME280;3384;42.628;23.380;2024-03-25T01:23:52;92877.38;;;5.93;100.00
6694;BME280;3384;42.628;23.380;2024-03-25T01:26:18;92870.13;;;6.15;100.00
6694;BME280;3384;42.628;23.380;2024-03-25T01:28:45;92865.13;;;6.14;100.00
6694;BME280;3384;42.628;23.380;2024-03-25T01:31:11;92882.47;;;6.11;100.00
6694;BME280;3384;42.628;23.380;2024-03-25T01:33:39;92875.53;;;6.32;100.00
6694;BME280;3384;42.628;23.380;2024-03-25T01:36:06;92879.81;;;6.50;100.00
6694;BME280;3384;42.628;23.380;2024-03-25T01:38:33;92872.06;;;6.32;100.00
6694;BME280;3384;42.628;23.380;2024-03-25T01:41:07;92882.88;;;6.27;100.00
6694;BME280;3384;42.628;23.380;2024-03-25T01:43:34;92878.94;;;6.72;100.00
6694;BME280;3384;42.628;23.380;2024-03-25T01:46:01;92880.22;;;6.83;100.00
6694;BME280;3384;42.628;23.380;2024-03-25T01:48:28;92878.75;;;6.68;100.00
6694;BME280;3384;42.628;23.380;2024-03-25T01:50:56;92872.69;;;6.76;100.00
6694;BME280;3384;42.628;23.380;2024-03-25T01:53:24;92874.09;;;6.82;100.00
6694;BME280;3384;42.628;23.380;2024-03-25T01:55:52;92860.03;;;7.07;100.00
6694;BME280;3384;42.628;23.380;2024-03-25T01:58:21;92862.38;;;6.92;100.00
6694;BME280;3384;42.628;23.380;2024-03-25T02:00:48;92873.38;;;7.07;100.00
6694;BME280;3384;42.628;23.380;2024-03-25T02:03:16;92889.59;;;6.80;100.00
6694;BME280;3384;42.628;23.380;2024-03-25T02:05:42;92899.00;;;6.95;100.00
6694;BME280;3384;42.628;23.380;2024-03-25T02:08:11;92908.38;;;6.75;100.00
6694;BME280;3384;42.628;23.380;2024-03-25T02:10:38;92917.97;;;6.46;100.00
6694;BME280;3384;42.628;23.380;2024-03-25T02:13:05;92909.00;;;6.33;100.00
6694;BME280;3384;42.628;23.380;2024-03-25T02:15:32;92904.09;;;6.57;100.00
6694;BME280;3384;42.628;23.380;2024-03-25T02:18:00;92923.06;;;6.64;100.00
6694;BME280;3384;42.628;23.380;2024-03-25T02:20:26;92923.22;;;6.59;100.00
6694;BME280;3384;42.628;23.380;2024-03-25T02:22:53;92911.88;;;6.15;100.00
6694;BME280;3384;42.628;23.380;2024-03-25T02:25:21;92910.72;;;6.29;100.00
6694;BME280;3384;42.628;23.380;2024-03-25T02:27:50;92900.91;;;6.08;100.00
6694;BME280;3384;42.628;23.380;2024-03-25T02:30:16;92897.06;;;6.22;100.00
6694;BME280;3384;42.628;23.380;2024-03-25T02:32:43;92896.63;;;5.98;100.00
6694;BME280;3384;42.628;23.380;2024-03-25T02:35:12;92901.25;;;5.84;100.00
6694;BME280;3384;42.628;23.380;2024-03-25T02:37:40;92901.13;;;5.67;100.00
6694;BME280;3384;42.628;23.380;2024-03-25T02:40:08;92922.63;;;5.79;100.00
6694;BME280;3384;42.628;23.380;2024-03-25T02:42:37;92894.84;;;5.85;100.00
6694;BME280;3384;42.628;23.380;2024-03-25T02:45:08;92898.28;;;5.86;100.00
6694;BME280;3384;42.628;23.380;2024-03-25T02:47:35;92899.25;;;5.90;100.00
6694;BME280;3384;42.628;23.380;2024-03-25T02:50:01;92903.06;;;5.97;100.00
6694;BME280;3384;42.628;23.380;2024-03-25T02:52:28;92902.34;;;5.83;100.00
6694;BME280;3384;42.628;23.380;2024-03-25T02:54:54;92915.34;;;6.15;100.00
6694;BME280;3384;42.628;23.380;2024-03-25T02:57:21;92927.84;;;5.84;100.00
6694;BME280;3384;42.628;23.380;2024-03-25T02:59:47;92928.81;;;6.19;100.00
6694;BME280;3384;42.628;23.380;2024-03-25T03:02:15;92925.84;;;5.90;100.00
6694;BME280;3384;42.628;23.380;2024-03-25T03:04:41;92921.97;;;5.96;100.00
6694;BME280;3384;42.628;23.380;2024-03-25T03:07:08;92928.94;;;6.14;100.00
6694;BME280;3384;42.628;23.380;2024-03-25T03:09:34;92930.09;;;6.21;100.00
6694;BME280;3384;42.628;23.380;2024-03-25T03:12:02;92938.47;;;5.84;100.00
6694;BME280;3384;42.628;23.380;2024-03-25T03:14:28;92955.50;;;6.05;100.00
6694;BME280;3384;42.628;23.380;2024-03-25T03:16:55;92933.63;;;6.08;100.00
6694;BME280;3384;42.628;23.380;2024-03-25T03:19:25;92960.34;;;5.81;100.00
6694;BME280;3384;42.628;23.380;2024-03-25T03:21:52;92931.88;;;5.82;100.00
6694;BME280;3384;42.628;23.380;2024-03-25T03:24:18;92940.81;;;5.86;100.00
6694;BME280;3384;42.628;23.380;2024-03-25T03:26:45;92937.22;;;5.68;100.00
6694;BME280;3384;42.628;23.380;2024-03-25T03:29:11;92956.78;;;5.86;100.00
6694;BME280;3384;42.628;23.380;2024-03-25T03:31:38;92952.63;;;5.93;100.00
6694;BME280;3384;42.628;23.380;2024-03-25T03:34:04;92951.00;;;5.70;100.00
6694;BME280;3384;42.628;23.380;2024-03-25T03:36:32;92946.44;;;5.84;100.00
6694;BME280;3384;42.628;23.380;2024-03-25T03:38:58;92963.19;;;5.85;100.00
6694;BME280;3384;42.628;23.380;2024-03-25T03:41:25;92947.34;;;6.02;100.00
6694;BME280;3384;42.628;23.380;2024-03-25T03:43:51;92966.72;;;6.24;100.00
6694;BME280;3384;42.628;23.380;2024-03-25T03:46:18;92944.84;;;6.05;100.00
6694;BME280;3384;42.628;23.380;2024-03-25T03:48:44;92957.03;;;6.28;100.00
6694;BME280;3384;42.628;23.380;2024-03-25T03:51:11;92956.38;;;6.23;100.00
6694;BME280;3384;42.628;23.380;2024-03-25T03:53:39;92960.72;;;6.19;100.00
6694;BME280;3384;42.628;23.380;2024-03-25T03:56:07;92959.34;;;6.21;100.00
6694;BME280;3384;42.628;23.380;2024-03-25T03:58:33;92967.53;;;6.33;100.00
6694;BME280;3384;42.628;23.380;2024-03-25T04:01:00;92948.16;;;6.33;100.00
6694;BME280;3384;42.628;23.380;2024-03-25T04:03:26;92976.00;;;6.35;100.00
6694;BME280;3384;42.628;23.380;2024-03-25T04:05:54;92984.34;;;6.42;100.00
6694;BME280;3384;42.628;23.380;2024-03-25T04:08:20;92990.78;;;6.41;100.00
6694;BME280;3384;42.628;23.380;2024-03-25T04:10:49;92996.66;;;6.30;100.00
6694;BME280;3384;42.628;23.380;2024-03-25T04:13:15;92971.75;;;6.26;100.00
6694;BME280;3384;42.628;23.380;2024-03-25T04:15:43;93000.34;;;6.51;100.00
6694;BME280;3384;42.628;23.380;2024-03-25T04:18:10;93016.56;;;6.41;100.00
6694;BME280;3384;42.628;23.380;2024-03-25T04:20:37;92991.47;;;6.33;100.00
6694;BME280;3384;42.628;23.380;2024-03-25T04:33:52;93019.44;;;6.22;100.00
6694;BME280;3384;42.628;23.380;2024-03-25T04:50:03;93047.72;;;6.18;100.00
6694;BME280;3384;42.628;23.380;2024-03-25T04:55:50;93067.69;;;6.29;100.00
6694;BME280;3384;42.628;23.380;2024-03-25T04:58:16;93059.97;;;6.50;100.00
6694;BME280;3384;42.628;23.380;2024-03-25T05:00:42;93055.44;;;6.50;100.00
6694;BME280;3384;42.628;23.380;2024-03-25T05:03:08;93058.47;;;6.13;100.00
6694;BME280;3384;42.628;23.380;2024-03-25T05:05:36;93045.97;;;6.36;100.00
6694;BME280;3384;42.628;23.380;2024-03-25T05:08:02;93057.03;;;6.29;100.00
6694;BME280;3384;42.628;23.380;2024-03-25T05:10:28;93055.56;;;6.23;100.00
6694;BME280;3384;42.628;23.380;2024-03-25T05:12:54;93061.47;;;6.34;100.00
6694;BME280;3384;42.628;23.380;2024-03-25T05:15:20;93065.31;;;6.28;100.00
6694;BME280;3384;42.628;23.380;2024-03-25T05:17:46;93059.22;;;6.05;100.00
6694;BME280;3384;42.628;23.380;2024-03-25T05:20:13;93065.88;;;5.67;100.00
6694;BME280;3384;42.628;23.380;2024-03-25T05:22:40;93086.53;;;5.84;100.00
6694;BME280;3384;42.628;23.380;2024-03-25T05:25:06;93068.03;;;5.78;100.00
6694;BME280;3384;42.628;23.380;2024-03-25T05:27:33;93074.50;;;6.00;100.00
6694;BME280;3384;42.628;23.380;2024-03-25T05:29:59;93082.78;;;5.98;100.00
6694;BME280;3384;42.628;23.380;2024-03-25T05:32:25;93089.59;;;5.77;100.00
6694;BME280;3384;42.628;23.380;2024-03-25T05:34:51;93085.06;;;5.91;100.00
6694;BME280;3384;42.628;23.380;2024-03-25T05:37:17;93087.94;;;5.81;100.00
6694;BME280;3384;42.628;23.380;2024-03-25T05:39:44;93095.81;;;5.86;100.00
6694;BME280;3384;42.628;23.380;2024-03-25T05:42:10;93109.75;;;5.78;100.00
6694;BME280;3384;42.628;23.380;2024-03-25T05:44:36;93112.16;;;5.52;100.00
6694;BME280;3384;42.628;23.380;2024-03-25T05:47:03;93098.84;;;5.79;100.00
6694;BME280;3384;42.628;23.380;2024-03-25T05:49:29;93098.47;;;5.86;100.00
6694;BME280;3384;42.628;23.380;2024-03-25T05:51:55;93102.69;;;5.87;100.00
6694;BME280;3384;42.628;23.380;2024-03-25T05:54:21;93110.75;;;5.82;100.00
6694;BME280;3384;42.628;23.380;2024-03-25T05:56:48;93122.47;;;5.95;100.00
6694;BME280;3384;42.628;23.380;2024-03-25T05:59:14;93109.66;;;5.97;100.00
6694;BME280;3384;42.628;23.380;2024-03-25T06:01:40;93127.13;;;5.62;100.00
6694;BME280;3384;42.628;23.380;2024-03-25T06:04:06;93115.13;;;5.51;100.00
6694;BME280;3384;42.628;23.380;2024-03-25T06:06:34;93099.75;;;5.89;100.00
6694;BME280;3384;42.628;23.380;2024-03-25T06:09:03;93135.78;;;5.81;100.00
6694;BME280;3384;42.628;23.380;2024-03-25T06:11:29;93138.53;;;6.25;100.00
6694;BME280;3384;42.628;23.380;2024-03-25T06:13:56;93137.84;;;5.84;100.00
6694;BME280;3384;42.628;23.380;2024-03-25T06:16:22;93171.41;;;5.66;100.00
6694;BME280;3384;42.628;23.380;2024-03-25T06:18:48;93158.72;;;5.50;100.00
6694;BME280;3384;42.628;23.380;2024-03-25T06:21:14;93172.03;;;5.63;100.00
6694;BME280;3384;42.628;23.380;2024-03-25T06:23:40;93149.94;;;5.76;100.00
6694;BME280;3384;42.628;23.380;2024-03-25T06:26:06;93161.19;;;5.60;100.00
6694;BME280;3384;42.628;23.380;2024-03-25T06:28:32;93157.81;;;5.95;100.00
6694;BME280;3384;42.628;23.380;2024-03-25T06:31:00;93155.75;;;5.92;100.00
6694;BME280;3384;42.628;23.380;2024-03-25T06:33:44;93166.72;;;6.26;100.00
6694;BME280;3384;42.628;23.380;2024-03-25T06:36:28;93157.63;;;6.27;100.00
6694;BME280;3384;42.628;23.380;2024-03-25T06:38:54;93171.41;;;6.65;100.00
6694;BME280;3384;42.628;23.380;2024-03-25T06:41:20;93172.31;;;6.60;100.00
6694;BME280;3384;42.628;23.380;2024-03-25T06:43:46;93176.69;;;6.56;100.00
6694;BME280;3384;42.628;23.380;2024-03-25T06:46:13;93181.94;;;6.48;100.00
6694;BME280;3384;42.628;23.380;2024-03-25T06:48:39;93205.69;;;6.44;100.00
6694;BME280;3384;42.628;23.380;2024-03-25T06:51:05;93212.81;;;6.35;100.00
6694;BME280;3384;42.628;23.380;2024-03-25T06:53:31;93176.97;;;6.33;100.00
6694;BME280;3384;42.628;23.380;2024-03-25T06:55:58;93190.59;;;6.75;100.00
6694;BME280;3384;42.628;23.380;2024-03-25T06:58:26;93191.75;;;6.61;100.00
6694;BME280;3384;42.628;23.380;2024-03-25T07:00:54;93179.56;;;6.68;100.00
6694;BME280;3384;42.628;23.380;2024-03-25T07:03:22;93197.13;;;6.69;100.00
6694;BME280;3384;42.628;23.380;2024-03-25T07:05:50;93186.59;;;6.64;100.00
6694;BME280;3384;42.628;23.380;2024-03-25T07:08:16;93183.56;;;6.57;100.00
6694;BME280;3384;42.628;23.380;2024-03-25T07:10:42;93199.59;;;6.88;100.00
6694;BME280;3384;42.628;23.380;2024-03-25T07:13:09;93187.22;;;6.83;100.00
6694;BME280;3384;42.628;23.380;2024-03-25T07:15:35;93199.56;;;7.01;100.00
6694;BME280;3384;42.628;23.380;2024-03-25T07:18:01;93202.19;;;6.79;100.00
6694;BME280;3384;42.628;23.380;2024-03-25T07:20:28;93223.03;;;6.77;100.00
6694;BME280;3384;42.628;23.380;2024-03-25T07:22:54;93220.00;;;6.70;100.00
6694;BME280;3384;42.628;23.380;2024-03-25T07:25:20;93217.09;;;6.80;100.00
6694;BME280;3384;42.628;23.380;2024-03-25T07:27:46;93238.50;;;6.53;100.00
6694;BME280;3384;42.628;23.380;2024-03-25T07:30:13;93218.06;;;7.06;100.00
6694;BME280;3384;42.628;23.380;2024-03-25T07:32:39;93238.41;;;7.02;100.00
6694;BME280;3384;42.628;23.380;2024-03-25T07:35:05;93218.13;;;6.93;100.00
6694;BME280;3384;42.628;23.380;2024-03-25T07:37:33;93219.59;;;6.99;100.00
6694;BME280;3384;42.628;23.380;2024-03-25T07:39:59;93209.78;;;6.86;100.00
6694;BME280;3384;42.628;23.380;2024-03-25T07:42:25;93224.94;;;6.99;100.00
6694;BME280;3384;42.628;23.380;2024-03-25T07:44:51;93206.69;;;7.14;100.00
6694;BME280;3384;42.628;23.380;2024-03-25T07:47:17;93212.47;;;7.38;100.00
6694;BME280;3384;42.628;23.380;2024-03-25T07:49:43;93208.72;;;7.17;100.00
6694;BME280;3384;42.628;23.380;2024-03-25T07:52:09;93217.03;;;7.16;100.00
6694;BME280;3384;42.628;23.380;2024-03-25T07:54:36;93219.84;;;7.41;100.00
6694;BME280;3384;42.628;23.380;2024-03-25T07:57:03;93209.47;;;7.31;100.00
6694;BME280;3384;42.628;23.380;2024-03-25T07:59:29;93224.00;;;7.56;100.00
6694;BME280;3384;42.628;23.380;2024-03-25T08:01:55;93227.56;;;7.51;100.00
6694;BME280;3384;42.628;23.380;2024-03-25T08:04:21;93224.00;;;7.25;100.00
6694;BME280;3384;42.628;23.380;2024-03-25T08:06:47;93211.31;;;7.31;100.00
6694;BME280;3384;42.628;23.380;2024-03-25T08:09:13;93225.66;;;7.13;100.00
6694;BME280;3384;42.628;23.380;2024-03-25T08:11:40;93208.00;;;7.56;100.00
6694;BME280;3384;42.628;23.380;2024-03-25T08:14:06;93214.31;;;7.68;100.00
6694;BME280;3384;42.628;23.380;2024-03-25T08:16:33;93224.16;;;7.90;100.00
6694;BME280;3384;42.628;23.380;2024-03-25T08:18:59;93225.78;;;8.08;100.00
6694;BME280;3384;42.628;23.380;2024-03-25T08:21:25;93238.75;;;7.92;100.00
6694;BME280;3384;42.628;23.380;2024-03-25T08:23:51;93218.97;;;7.93;100.00
6694;BME280;3384;42.628;23.380;2024-03-25T08:26:17;93263.78;;;7.74;100.00
6694;BME280;3384;42.628;23.380;2024-03-25T08:28:44;93238.66;;;7.75;100.00
6694;BME280;3384;42.628;23.380;2024-03-25T08:31:10;93250.28;;;7.79;100.00
6694;BME280;3384;42.628;23.380;2024-03-25T08:33:36;93238.28;;;7.90;100.00
6694;BME280;3384;42.628;23.380;2024-03-25T08:36:03;93242.25;;;8.01;100.00
6694;BME280;3384;42.628;23.380;2024-03-25T08:38:29;93248.41;;;7.80;100.00
6694;BME280;3384;42.628;23.380;2024-03-25T08:40:55;93243.84;;;7.72;100.00
6694;BME280;3384;42.628;23.380;2024-03-25T08:43:21;93246.03;;;7.70;100.00
6694;BME280;3384;42.628;23.380;2024-03-25T08:45:48;93239.41;;;8.06;100.00
6694;BME280;3384;42.628;23.380;2024-03-25T08:48:16;93260.34;;;8.13;100.00
6694;BME280;3384;42.628;23.380;2024-03-25T08:50:47;93258.41;;;8.05;100.00
6694;BME280;3384;42.628;23.380;2024-03-25T08:53:15;93289.28;;;8.28;100.00
6694;BME280;3384;42.628;23.380;2024-03-25T08:55:45;93283.06;;;8.10;100.00
6694;BME280;3384;42.628;23.380;2024-03-25T08:58:12;93269.94;;;7.83;100.00
6694;BME280;3384;42.628;23.380;2024-03-25T09:00:38;93259.13;;;7.88;100.00
6694;BME280;3384;42.628;23.380;2024-03-25T09:03:06;93255.00;;;7.82;100.00
6694;BME280;3384;42.628;23.380;2024-03-25T09:05:32;93280.81;;;7.95;100.00
6694;BME280;3384;42.628;23.380;2024-03-25T09:07:58;93261.44;;;8.20;100.00
6694;BME280;3384;42.628;23.380;2024-03-25T09:10:24;93248.19;;;8.46;100.00
6694;BME280;3384;42.628;23.380;2024-03-25T09:13:09;93261.41;;;8.68;100.00
6694;BME280;3384;42.628;23.380;2024-03-25T09:15:35;93258.13;;;8.15;100.00
6694;BME280;3384;42.628;23.380;2024-03-25T09:18:01;93300.91;;;7.93;100.00
6694;BME280;3384;42.628;23.380;2024-03-25T09:20:29;93262.69;;;8.14;100.00
6694;BME280;3384;42.628;23.380;2024-03-25T09:22:54;93288.84;;;8.04;100.00
6694;BME280;3384;42.628;23.380;2024-03-25T09:25:20;93290.44;;;8.13;100.00
6694;BME280;3384;42.628;23.380;2024-03-25T09:27:47;93269.69;;;8.02;100.00
6694;BME280;3384;42.628;23.380;2024-03-25T09:30:13;93284.91;;;8.32;100.00
6694;BME280;3384;42.628;23.380;2024-03-25T09:32:39;93278.66;;;8.45;100.00
6694;BME280;3384;42.628;23.380;2024-03-25T09:35:06;93307.13;;;8.19;100.00
6694;BME280;3384;42.628;23.380;2024-03-25T09:37:34;93291.56;;;8.12;100.00
6694;BME280;3384;42.628;23.380;2024-03-25T09:40:00;93303.63;;;8.40;100.00
6694;BME280;3384;42.628;23.380;2024-03-25T09:42:27;93299.72;;;8.47;100.00
6694;BME280;3384;42.628;23.380;2024-03-25T09:44:54;93299.56;;;8.52;100.00
6694;BME280;3384;42.628;23.380;2024-03-25T09:47:21;93313.84;;;8.47;100.00
6694;BME280;3384;42.628;23.380;2024-03-25T09:49:47;93286.44;;;8.24;100.00
6694;BME280;3384;42.628;23.380;2024-03-25T09:52:14;93285.78;;;8.67;100.00
6694;BME280;3384;42.628;23.380;2024-03-25T09:54:41;93308.25;;;8.74;99.04
6694;BME280;3384;42.628;23.380;2024-03-25T09:57:08;93303.72;;;8.83;95.98
6694;BME280;3384;42.628;23.380;2024-03-25T09:59:34;93315.50;;;8.74;95.48
6694;BME280;3384;42.628;23.380;2024-03-25T10:02:01;93306.38;;;8.75;97.66
6694;BME280;3384;42.628;23.380;2024-03-25T10:04:27;93287.06;;;8.95;99.13
6694;BME280;3384;42.628;23.380;2024-03-25T10:06:53;93313.59;;;8.83;94.54
6694;BME280;3384;42.628;23.380;2024-03-25T10:09:19;93304.81;;;8.99;95.90
6694;BME280;3384;42.628;23.380;2024-03-25T10:11:48;93287.22;;;8.90;96.60
6694;BME280;3384;42.628;23.380;2024-03-25T10:14:15;93300.25;;;8.91;94.08
6694;BME280;3384;42.628;23.380;2024-03-25T10:16:41;93295.69;;;8.83;93.21
6694;BME280;3384;42.628;23.380;2024-03-25T10:19:07;93303.53;;;8.80;91.46
6694;BME280;3384;42.628;23.380;2024-03-25T10:21:33;93288.97;;;9.03;92.25
6694;BME280;3384;42.628;23.380;2024-03-25T10:24:00;93278.25;;;9.28;90.85
6694;BME280;3384;42.628;23.380;2024-03-25T10:26:26;93290.53;;;9.38;85.69
6694;BME280;3384;42.628;23.380;2024-03-25T10:29:01;93296.78;;;8.91;92.03
6694;BME280;3384;42.628;23.380;2024-03-25T10:31:28;93341.78;;;9.14;87.95
6694;BME280;3384;42.628;23.380;2024-03-25T10:33:54;93321.00;;;8.94;87.08
6694;BME280;3384;42.628;23.380;2024-03-25T10:36:21;93319.13;;;8.78;85.10
6694;BME280;3384;42.628;23.380;2024-03-25T10:38:49;93311.97;;;8.56;86.17
6694;BME280;3384;42.628;23.380;2024-03-25T10:41:18;93289.44;;;8.96;83.89
6694;BME280;3384;42.628;23.380;2024-03-25T10:43:47;93309.41;;;9.16;82.08
6694;BME280;3384;42.628;23.380;2024-03-25T10:46:19;93284.38;;;9.46;81.01
6694;BME280;3384;42.628;23.380;2024-03-25T10:48:53;93303.00;;;9.97;79.35
6694;BME280;3384;42.628;23.380;2024-03-25T10:51:21;93286.28;;;9.45;77.16
6694;BME280;3384;42.628;23.380;2024-03-25T10:53:51;93311.41;;;9.53;74.69
6694;BME280;3384;42.628;23.380;2024-03-25T10:56:20;93301.22;;;9.38;74.89
6694;BME280;3384;42.628;23.380;2024-03-25T10:58:48;93317.38;;;9.58;74.38
6694;BME280;3384;42.628;23.380;2024-03-25T11:01:15;93287.81;;;9.55;72.65
6694;BME280;3384;42.628;23.380;2024-03-25T11:03:44;93270.34;;;9.66;72.94
6694;BME280;3384;42.628;23.380;2024-03-25T11:06:10;93273.31;;;9.73;72.68
6694;BME280;3384;42.628;23.380;2024-03-25T11:08:36;93341.41;;;10.01;70.20
6694;BME280;3384;42.628;23.380;2024-03-25T11:11:03;93286.00;;;10.01;68.31
6694;BME280;3384;42.628;23.380;2024-03-25T11:13:29;93289.22;;;9.69;68.93
6694;BME280;3384;42.628;23.380;2024-03-25T11:15:55;93281.03;;;9.74;68.18
6694;BME280;3384;42.628;23.380;2024-03-25T11:18:22;93263.09;;;9.66;70.90
6694;BME280;3384;42.628;23.380;2024-03-25T11:21:01;93262.69;;;9.22;75.53
6694;BME280;3384;42.628;23.380;2024-03-25T11:23:35;93260.97;;;9.43;75.36
6694;BME280;3384;42.628;23.380;2024-03-25T11:26:02;93260.59;;;9.53;75.12
6694;BME280;3384;42.628;23.380;2024-03-25T11:28:28;93271.69;;;9.09;74.79
6694;BME280;3384;42.628;23.380;2024-03-25T11:30:55;93261.41;;;9.53;75.68
6694;BME280;3384;42.628;23.380;2024-03-25T11:33:21;93285.50;;;9.19;76.14
6694;BME280;3384;42.628;23.380;2024-03-25T11:35:48;93259.44;;;9.88;74.21
6694;BME280;3384;42.628;23.380;2024-03-25T11:38:15;93320.50;;;9.94;76.85
6694;BME280;3384;42.628;23.380;2024-03-25T11:40:43;93299.03;;;9.06;86.14
6694;BME280;3384;42.628;23.380;2024-03-25T11:43:17;93291.00;;;9.23;83.27
6694;BME280;3384;42.628;23.380;2024-03-25T11:45:43;93320.41;;;9.31;84.64
6694;BME280;3384;42.628;23.380;2024-03-25T11:48:09;93300.72;;;9.36;83.69
6694;BME280;3384;42.628;23.380;2024-03-25T11:50:35;93293.66;;;8.89;87.15
6694;BME280;3384;42.628;23.380;2024-03-25T11:53:03;93325.69;;;8.72;88.41
6694;BME280;3384;42.628;23.380;2024-03-25T11:55:31;93316.25;;;8.66;88.60
6694;BME280;3384;42.628;23.380;2024-03-25T11:57:58;93340.78;;;8.68;87.85
6694;BME280;3384;42.628;23.380;2024-03-25T12:00:24;93312.81;;;8.65;91.34
6694;BME280;3384;42.628;23.380;2024-03-25T12:02:50;93319.84;;;8.70;91.08
6694;BME280;3384;42.628;23.380;2024-03-25T12:05:17;93301.66;;;8.80;92.82
6694;BME280;3384;42.628;23.380;2024-03-25T12:07:43;93310.63;;;8.93;90.67
6694;BME280;3384;42.628;23.380;2024-03-25T12:10:09;93295.25;;;9.24;88.33
6694;BME280;3384;42.628;23.380;2024-03-25T12:12:55;93321.50;;;9.13;87.95
6694;BME280;3384;42.628;23.380;2024-03-25T12:15:21;93318.19;;;9.08;87.18
6694;BME280;3384;42.628;23.380;2024-03-25T12:17:47;93316.16;;;9.39;83.81
6694;BME280;3384;42.628;23.380;2024-03-25T12:20:14;93295.88;;;9.21;83.70
6694;BME280;3384;42.628;23.380;2024-03-25T12:22:40;93305.75;;;9.37;82.06
6694;BME280;3384;42.628;23.380;2024-03-25T12:25:07;93321.97;;;9.41;80.00
6694;BME280;3384;42.628;23.380;2024-03-25T12:27:35;93319.44;;;9.36;79.51
6694;BME280;3384;42.628;23.380;2024-03-25T12:30:08;93296.19;;;9.28;80.28
6694;BME280;3384;42.628;23.380;2024-03-25T12:32:38;93306.53;;;8.95;79.42
6694;BME280;3384;42.628;23.380;2024-03-25T12:35:07;93316.13;;;8.79;81.76
6694;BME280;3384;42.628;23.380;2024-03-25T12:37:33;93333.59;;;9.11;80.63
6694;BME280;3384;42.628;23.380;2024-03-25T12:40:00;93311.28;;;9.15;80.82
6694;BME280;3384;42.628;23.380;2024-03-25T12:42:26;93310.34;;;9.20;78.40
6694;BME280;3384;42.628;23.380;2024-03-25T12:44:52;93311.28;;;9.41;76.38
6694;BME280;3384;42.628;23.380;2024-03-25T12:47:20;93317.13;;;9.26;73.69
6694;BME280;3384;42.628;23.380;2024-03-25T12:49:46;93292.88;;;8.97;75.50
6694;BME280;3384;42.628;23.380;2024-03-25T12:52:12;93314.44;;;9.34;76.57
6694;BME280;3384;42.628;23.380;2024-03-25T12:54:38;93350.59;;;9.66;75.25
6694;BME280;3384;42.628;23.380;2024-03-25T12:57:04;93317.88;;;9.35;74.47
6694;BME280;3384;42.628;23.380;2024-03-25T12:59:30;93303.88;;;9.29;74.64
6694;BME280;3384;42.628;23.380;2024-03-25T13:01:56;93326.22;;;9.42;76.66
6694;BME280;3384;42.628;23.380;2024-03-25T13:04:24;93330.41;;;9.85;74.08
6694;BME280;3384;42.628;23.380;2024-03-25T13:06:50;93310.19;;;9.33;73.98
6694;BME280;3384;42.628;23.380;2024-03-25T13:09:16;93320.72;;;9.55;74.09
6694;BME280;3384;42.628;23.380;2024-03-25T13:11:42;93322.16;;;9.27;75.14
6694;BME280;3384;42.628;23.380;2024-03-25T13:14:11;93340.06;;;9.44;76.73
6694;BME280;3384;42.628;23.380;2024-03-25T13:16:37;93315.50;;;9.67;76.48
6694;BME280;3384;42.628;23.380;2024-03-25T13:19:03;93337.41;;;9.44;76.60
6694;BME280;3384;42.628;23.380;2024-03-25T13:21:31;93330.13;;;9.70;73.99
6694;BME280;3384;42.628;23.380;2024-03-25T13:23:57;93362.56;;;9.43;75.44
6694;BME280;3384;42.628;23.380;2024-03-25T13:26:23;93352.94;;;9.25;71.82
6694;BME280;3384;42.628;23.380;2024-03-25T13:28:49;93330.31;;;9.31;73.05
6694;BME280;3384;42.628;23.380;2024-03-25T13:31:15;93322.59;;;9.55;73.08
6694;BME280;3384;42.628;23.380;2024-03-25T13:33:42;93318.75;;;9.90;72.60
6694;BME280;3384;42.628;23.380;2024-03-25T13:36:08;93319.75;;;9.68;71.50
6694;BME280;3384;42.628;23.380;2024-03-25T13:38:35;93318.38;;;9.45;72.14
6694;BME280;3384;42.628;23.380;2024-03-25T13:41:02;93323.69;;;9.62;71.33
6694;BME280;3384;42.628;23.380;2024-03-25T13:43:28;93328.44;;;9.57;69.88